createdAt,value
2022-11-01T00:01:01.732Z,0.60
2022-11-01T00:03:29.080Z,1.52
2022-11-01T00:05:56.460Z,1.08
2022-11-01T00:08:23.740Z,1.02
2022-11-01T00:10:50.905Z,2.00
2022-11-01T00:13:18.391Z,0.40
2022-11-01T00:15:45.586Z,1.27
2022-11-01T00:18:12.811Z,1.35
2022-11-01T00:20:39.996Z,1.50
2022-11-01T00:23:25.026Z,1.20
2022-11-01T00:25:52.286Z,2.63
2022-11-01T00:28:19.722Z,1.08
2022-11-01T00:30:47.023Z,2.58
2022-11-01T00:33:14.230Z,1.23
2022-11-01T00:35:41.425Z,0.40
2022-11-01T00:38:08.896Z,1.25
2022-11-01T00:40:36.199Z,2.45
2022-11-01T00:43:03.498Z,0.65
2022-11-01T00:45:30.730Z,0.98
2022-11-01T00:47:58.720Z,2.50
2022-11-01T00:50:26.713Z,2.30
2022-11-01T00:52:53.927Z,1.27
2022-11-01T00:55:21.226Z,2.80
2022-11-01T00:57:48.507Z,0.80
2022-11-01T01:00:15.905Z,1.02
2022-11-01T01:02:43.278Z,1.73
2022-11-01T01:05:10.695Z,7.07
2022-11-01T01:07:38.141Z,1.20
2022-11-01T01:10:06.618Z,6.38
2022-11-01T01:12:34.124Z,4.30
2022-11-01T01:15:01.822Z,1.25
2022-11-01T01:17:32.793Z,0.75
2022-11-01T01:20:01.162Z,1.65
2022-11-01T01:22:28.920Z,3.72
2022-11-01T01:24:56.408Z,1.00
2022-11-01T01:27:24.038Z,0.68
2022-11-01T01:29:52.229Z,0.88
2022-11-01T01:32:22.144Z,0.98
2022-11-01T01:34:50.194Z,1.75
2022-11-01T01:37:18.092Z,1.42
2022-11-01T01:39:45.288Z,0.77
2022-11-01T01:42:30.983Z,0.85
2022-11-01T01:45:01.446Z,1.05
2022-11-01T01:47:36.563Z,1.00
2022-11-01T01:50:18.229Z,0.57
2022-11-01T01:53:00.747Z,3.10
2022-11-01T01:55:35.004Z,1.17
2022-11-01T01:58:03.528Z,1.40
2022-11-01T02:00:30.931Z,1.40
2022-11-01T02:02:58.543Z,1.55
2022-11-01T02:05:37.837Z,4.72
2022-11-01T02:08:06.796Z,0.75
2022-11-01T02:10:38.402Z,0.77
2022-11-01T02:13:14.422Z,1.58
2022-11-01T02:15:58.886Z,1.20
2022-11-01T02:18:41.850Z,1.38
2022-11-01T02:21:39.621Z,0.95
2022-11-01T02:24:31.475Z,0.50
2022-11-01T02:27:11.537Z,1.38
2022-11-01T02:30:14.270Z,1.95
2022-11-01T02:32:47.772Z,2.53
2022-11-01T02:35:18.340Z,2.42
2022-11-01T02:38:09.149Z,2.28
2022-11-01T02:40:55.359Z,0.52
2022-11-01T02:43:29.780Z,0.60
2022-11-01T02:45:59.555Z,5.40
2022-11-01T02:48:26.792Z,3.17
2022-11-01T02:50:57.143Z,1.75
2022-11-01T02:53:24.835Z,0.40
2022-11-01T02:55:53.367Z,1.48
2022-11-01T02:58:24.488Z,1.65
2022-11-01T03:00:52.081Z,1.85
2022-11-01T03:03:23.918Z,2.25
2022-11-01T03:06:01.791Z,0.68
2022-11-01T03:08:44.777Z,0.80
2022-11-01T03:11:24.316Z,2.75
2022-11-01T03:14:39.035Z,0.30
2022-11-01T03:17:28.792Z,0.45
2022-11-01T03:20:09.338Z,1.55
2022-11-01T03:22:39.649Z,0.90
2022-11-01T03:25:34.459Z,1.13
2022-11-01T03:28:07.232Z,1.77
2022-11-01T03:30:40.033Z,1.42
2022-11-01T03:33:07.482Z,0.45
2022-11-01T03:35:38.548Z,1.85
2022-11-01T03:38:09.995Z,0.70
2022-11-01T03:43:11.956Z,2.33
2022-11-01T03:45:40.784Z,0.90
2022-11-01T03:48:08.353Z,0.95
2022-11-01T03:50:36.021Z,1.08
2022-11-01T03:53:03.246Z,0.90
2022-11-01T03:55:30.645Z,1.75
2022-11-01T03:57:59.711Z,4.03
2022-11-01T04:00:33.607Z,1.58
2022-11-01T04:03:01.715Z,0.30
2022-11-01T04:05:31.472Z,1.95
2022-11-01T04:07:59.082Z,0.52
2022-11-01T04:10:29.817Z,0.40
2022-11-01T04:12:59.168Z,0.93
2022-11-01T04:15:27.757Z,0.63
2022-11-01T04:18:14.875Z,0.90
2022-11-01T04:20:42.113Z,1.27
2022-11-01T04:23:09.392Z,0.45
2022-11-01T04:25:36.691Z,1.05
2022-11-01T04:28:04.103Z,1.60
2022-11-01T04:30:31.318Z,0.57
2022-11-01T04:32:58.715Z,0.32
2022-11-01T04:35:26.063Z,0.22
2022-11-01T04:37:59.807Z,0.40
2022-11-01T04:40:27.353Z,1.50
2022-11-01T04:42:54.690Z,0.52
2022-11-01T04:45:21.999Z,3.10
2022-11-01T04:47:49.232Z,0.82
2022-11-01T04:50:17.327Z,2.40
2022-11-01T04:52:45.005Z,0.88
2022-11-01T04:55:12.762Z,1.25
2022-11-01T04:57:56.570Z,0.35
2022-11-01T05:00:24.454Z,0.25
2022-11-01T05:03:01.684Z,0.50
2022-11-01T05:05:35.928Z,0.57
2022-11-01T05:08:07.350Z,1.30
2022-11-01T05:10:37.797Z,0.75
2022-11-01T05:13:07.037Z,0.10
2022-11-01T05:15:53.591Z,0.13
2022-11-01T05:18:32.328Z,1.00
2022-11-01T05:21:00.150Z,0.52
2022-11-01T05:23:27.353Z,0.35
2022-11-01T05:25:54.589Z,0.65
2022-11-01T05:28:22.770Z,11.50
2022-11-01T05:30:55.456Z,0.75
2022-11-01T05:33:25.911Z,0.95
2022-11-01T05:35:53.555Z,5.23
2022-11-01T05:38:20.814Z,1.02
2022-11-01T05:40:48.046Z,1.58
2022-11-01T05:43:15.588Z,2.45
2022-11-01T05:45:43.141Z,2.97
2022-11-01T05:48:17.688Z,1.02
2022-11-01T05:50:51.342Z,0.80
2022-11-01T05:53:25.106Z,1.65
2022-11-01T05:55:57.879Z,0.75
2022-11-01T05:58:29.577Z,1.00
2022-11-01T06:01:05.895Z,0.40
2022-11-01T06:03:36.477Z,0.65
2022-11-01T06:06:04.999Z,0.20
2022-11-01T06:08:32.590Z,1.45
2022-11-01T06:11:05.287Z,0.63
2022-11-01T06:13:33.826Z,0.95
2022-11-01T06:16:05.287Z,0.45
2022-11-01T06:18:36.366Z,0.52
2022-11-01T06:21:09.575Z,0.28
2022-11-01T06:23:39.633Z,0.43
2022-11-01T06:26:09.781Z,0.70
2022-11-01T06:28:39.753Z,0.98
2022-11-01T06:31:10.071Z,1.50
2022-11-01T06:33:38.054Z,1.25
2022-11-01T06:36:06.282Z,0.60
2022-11-01T06:38:36.323Z,0.85
2022-11-01T06:41:06.029Z,3.80
2022-11-01T06:43:33.536Z,0.32
2022-11-01T06:46:01.274Z,10.15
2022-11-01T06:48:28.962Z,1.85
2022-11-01T06:50:56.527Z,1.00
2022-11-01T06:53:27.634Z,0.40
2022-11-01T06:55:58.519Z,1.25
2022-11-01T06:58:27.138Z,1.58
2022-11-01T07:00:54.473Z,0.55
2022-11-01T07:03:24.628Z,2.28
2022-11-01T07:05:59.249Z,3.60
2022-11-01T07:08:29.819Z,1.08
2022-11-01T07:11:00.662Z,0.82
2022-11-01T07:13:28.697Z,1.67
2022-11-01T07:15:59.590Z,0.55
2022-11-01T07:18:27.116Z,1.40
2022-11-01T07:20:57.405Z,0.68
2022-11-01T07:23:27.639Z,0.40
2022-11-01T07:25:57.791Z,0.60
2022-11-01T07:28:29.163Z,0.88
2022-11-01T07:30:57.161Z,0.30
2022-11-01T07:33:29.649Z,0.40
2022-11-01T07:35:57.189Z,1.40
2022-11-01T07:38:30.051Z,0.10
2022-11-01T07:40:57.296Z,1.55
2022-11-01T07:43:24.990Z,0.55
2022-11-01T07:45:58.990Z,2.25
2022-11-01T07:48:29.115Z,1.17
2022-11-01T07:51:02.808Z,0.45
2022-11-01T07:53:35.371Z,0.52
2022-11-01T07:56:07.192Z,2.55
2022-11-01T07:58:34.716Z,3.70
2022-11-01T08:01:08.103Z,1.73
2022-11-01T08:03:39.550Z,0.63
2022-11-01T08:06:08.163Z,0.50
2022-11-01T08:08:38.844Z,0.82
2022-11-01T08:11:08.627Z,0.80
2022-11-01T08:13:38.645Z,0.30
2022-11-01T08:16:09.655Z,0.30
2022-11-01T08:18:40.192Z,0.82
2022-11-01T08:21:10.782Z,0.80
2022-11-01T08:23:44.324Z,2.80
2022-11-01T08:26:15.318Z,2.17
2022-11-01T08:28:45.618Z,1.40
2022-11-01T08:31:19.025Z,0.47
2022-11-01T08:33:46.655Z,2.42
2022-11-01T08:36:16.423Z,1.35
2022-11-01T08:38:50.581Z,0.10
2022-11-01T08:41:17.862Z,0.75
2022-11-01T08:43:45.619Z,0.63
2022-11-01T08:46:13.341Z,4.25
2022-11-01T08:48:40.753Z,0.65
2022-11-01T08:51:13.883Z,0.57
2022-11-01T08:53:44.407Z,1.05
2022-11-01T08:56:12.079Z,1.30
2022-11-01T08:58:42.494Z,0.55
2022-11-01T09:01:17.661Z,1.13
2022-11-01T09:03:48.341Z,1.27
2022-11-01T09:06:15.741Z,0.60
2022-11-01T09:08:43.027Z,1.85
2022-11-01T09:11:18.235Z,0.75
2022-11-01T09:16:19.508Z,1.45
2022-11-01T09:18:47.392Z,0.70
2022-11-01T09:21:31.855Z,0.98
2022-11-01T09:24:09.879Z,0.20
2022-11-01T09:26:43.603Z,0.60
2022-11-01T09:29:12.508Z,0.22
2022-11-01T09:31:42.761Z,0.82
2022-11-01T09:34:10.041Z,1.00
2022-11-01T09:36:44.066Z,0.50
2022-11-01T09:39:14.591Z,0.30
2022-11-01T09:41:56.955Z,0.63
2022-11-01T09:44:33.370Z,0.45
2022-11-01T09:47:13.022Z,0.63
2022-11-01T09:49:44.146Z,0.80
2022-11-01T09:52:26.535Z,1.40
2022-11-01T09:54:53.769Z,2.20
2022-11-01T09:57:43.880Z,0.50
2022-11-01T10:00:20.938Z,0.80
2022-11-01T10:03:12.885Z,1.65
2022-11-01T10:05:46.119Z,2.72
2022-11-01T10:08:31.442Z,0.75
2022-11-01T10:12:02.604Z,1.23
2022-11-01T10:14:41.919Z,0.80
2022-11-01T10:17:19.821Z,0.50
2022-11-01T10:19:50.897Z,2.00
2022-11-01T10:22:40.298Z,0.95
2022-11-01T10:25:19.664Z,0.75
2022-11-01T10:28:04.178Z,0.70
2022-11-01T10:30:43.079Z,1.00
2022-11-01T10:33:16.573Z,1.95
2022-11-01T10:35:49.457Z,0.80
2022-11-01T10:38:50.028Z,0.45
2022-11-01T10:41:49.396Z,0.95
2022-11-01T10:44:34.655Z,0.57
2022-11-01T10:47:10.886Z,1.02
2022-11-01T10:50:04.929Z,0.73
2022-11-01T10:52:58.588Z,1.02
2022-11-01T10:55:52.331Z,1.42
2022-11-01T10:58:30.820Z,1.75
2022-11-01T11:01:03.431Z,0.55
2022-11-01T11:03:31.529Z,0.43
2022-11-01T11:06:08.902Z,0.82
2022-11-01T11:08:40.709Z,1.77
2022-11-01T11:11:12.730Z,0.73
2022-11-01T11:13:54.943Z,1.00
2022-11-01T11:16:47.212Z,0.38
2022-11-01T11:19:22.629Z,0.77
2022-11-01T11:21:58.709Z,1.10
2022-11-01T11:24:32.389Z,0.60
2022-11-01T11:27:02.219Z,0.13
2022-11-01T11:29:50.037Z,0.77
2022-11-01T11:32:24.318Z,1.17
2022-11-01T11:34:55.184Z,1.85
2022-11-01T11:37:28.984Z,1.20
2022-11-01T11:40:24.031Z,0.52
2022-11-01T11:42:56.330Z,1.00
2022-11-01T11:45:31.158Z,2.60
2022-11-01T11:48:18.857Z,0.93
2022-11-01T11:50:46.340Z,2.13
2022-11-01T11:53:18.383Z,1.55
2022-11-01T11:55:54.112Z,0.40
2022-11-01T11:58:35.879Z,3.65
2022-11-01T12:01:11.382Z,1.17
2022-11-01T12:03:50.743Z,0.30
2022-11-01T12:06:30.163Z,4.05
2022-11-01T12:09:01.289Z,2.05
2022-11-01T12:11:46.599Z,0.20
2022-11-01T12:14:23.908Z,0.35
2022-11-01T12:16:52.136Z,0.93
2022-11-01T12:19:28.666Z,0.52
2022-11-01T12:22:03.481Z,0.55
2022-11-01T12:24:38.874Z,0.52
2022-11-01T12:27:14.340Z,1.25
2022-11-01T12:29:49.004Z,1.25
2022-11-01T12:32:36.900Z,3.92
2022-11-01T12:35:15.034Z,0.75
2022-11-01T12:38:04.604Z,1.48
2022-11-01T12:40:38.800Z,0.32
2022-11-01T12:43:21.281Z,0.60
2022-11-01T12:46:03.166Z,0.77
2022-11-01T12:48:36.403Z,0.75
2022-11-01T12:51:10.104Z,1.63
2022-11-01T12:53:48.802Z,2.90
2022-11-01T12:56:17.905Z,1.17
2022-11-01T12:58:45.430Z,0.25
2022-11-01T13:01:38.834Z,0.47
2022-11-01T13:04:16.509Z,3.03
2022-11-01T13:06:46.455Z,0.87
2022-11-01T13:09:58.226Z,0.63
2022-11-01T13:13:00.976Z,2.58
2022-11-01T13:15:39.577Z,0.95
2022-11-01T13:18:20.282Z,0.38
2022-11-01T13:23:24.299Z,0.35
2022-11-01T13:26:14.613Z,0.30
2022-11-01T13:29:02.124Z,0.90
2022-11-01T13:31:59.590Z,0.93
2022-11-01T13:35:05.890Z,0.45
2022-11-01T13:37:39.087Z,1.13
2022-11-01T13:40:32.753Z,1.88
2022-11-01T13:43:34.059Z,0.20
2022-11-01T13:48:59.607Z,1.55
2022-11-01T13:51:41.493Z,0.70
2022-11-01T13:54:36.333Z,2.60
2022-11-01T13:57:07.125Z,0.55
2022-11-01T13:59:37.109Z,0.77
2022-11-01T14:02:53.031Z,0.57
2022-11-01T14:05:38.620Z,1.30
2022-11-01T14:08:15.465Z,0.40
2022-11-01T14:10:50.622Z,0.93
2022-11-01T14:13:37.645Z,0.90
2022-11-01T14:16:25.520Z,0.43
2022-11-01T14:19:12.048Z,1.05
2022-11-01T14:21:45.844Z,1.05
2022-11-01T14:24:34.566Z,1.48
2022-11-01T14:27:06.032Z,2.10
2022-11-01T14:29:36.380Z,0.55
2022-11-01T14:32:04.269Z,1.45
2022-11-01T14:34:34.509Z,0.47
2022-11-01T14:37:15.224Z,0.63
2022-11-01T14:39:56.207Z,0.35
2022-11-01T14:42:32.915Z,4.22
2022-11-01T14:45:06.013Z,0.80
2022-11-01T14:47:41.241Z,1.27
2022-11-01T14:50:34.847Z,0.55
2022-11-01T14:53:32.338Z,0.40
2022-11-01T14:56:06.023Z,1.45
2022-11-01T14:58:34.142Z,0.98
2022-11-01T15:01:18.085Z,0.40
2022-11-01T15:03:57.163Z,0.68
2022-11-01T15:06:30.011Z,0.52
2022-11-01T15:08:59.557Z,1.70
2022-11-01T15:11:33.033Z,0.90
2022-11-01T15:14:04.428Z,3.07
2022-11-01T15:16:35.238Z,0.75
2022-11-01T15:19:13.885Z,2.35
2022-11-01T15:21:46.958Z,0.80
2022-11-01T15:24:20.418Z,2.92
2022-11-01T15:26:48.275Z,1.00
2022-11-01T15:29:21.778Z,1.23
2022-11-01T15:31:56.537Z,0.88
2022-11-01T15:34:31.336Z,1.88
2022-11-01T15:37:09.876Z,1.38
2022-11-01T15:39:40.067Z,0.40
2022-11-01T15:42:24.904Z,1.25
2022-11-01T15:44:55.536Z,1.02
2022-11-01T15:47:25.694Z,0.80
2022-11-01T15:50:00.599Z,1.07
2022-11-01T15:52:30.198Z,2.13
2022-11-01T15:55:15.585Z,3.33
2022-11-01T15:57:57.935Z,0.73
2022-11-01T16:00:32.275Z,0.85
2022-11-01T16:03:14.552Z,1.05
2022-11-01T16:05:47.696Z,0.40
2022-11-01T16:08:39.629Z,1.90
2022-11-01T16:11:08.310Z,2.58
2022-11-01T16:13:37.154Z,0.77
2022-11-01T16:16:06.600Z,1.92
2022-11-01T16:18:39.334Z,1.20
2022-11-01T16:21:27.905Z,5.05
2022-11-01T16:24:13.576Z,5.40
2022-11-01T16:27:02.623Z,1.90
2022-11-01T16:29:47.894Z,2.63
2022-11-01T16:32:33.361Z,5.00
2022-11-01T16:35:29.510Z,2.50
2022-11-01T16:38:00.657Z,2.15
2022-11-01T16:40:39.104Z,2.53
2022-11-01T16:43:11.733Z,2.22
2022-11-01T16:45:45.050Z,3.80
2022-11-01T16:48:50.321Z,3.47
2022-11-01T16:51:17.869Z,4.03
2022-11-01T16:53:48.322Z,2.92
2022-11-01T16:56:43.016Z,3.60
2022-11-01T16:59:33.866Z,4.70
2022-11-01T17:02:11.375Z,7.00
2022-11-01T17:04:42.969Z,9.88
2022-11-01T17:07:13.678Z,13.20
2022-11-01T17:09:43.850Z,13.80
2022-11-01T17:12:17.727Z,17.38
2022-11-01T17:14:44.966Z,7.38
2022-11-01T17:17:18.464Z,10.02
2022-11-01T17:19:52.347Z,9.95
2022-11-01T17:22:29.469Z,12.20
2022-11-01T17:24:57.011Z,15.85
2022-11-01T17:27:27.626Z,15.50
2022-11-01T17:29:54.902Z,11.55
2022-11-01T17:32:22.228Z,7.57
2022-11-01T17:34:49.896Z,11.90
2022-11-01T17:37:17.861Z,13.00
2022-11-01T17:39:47.232Z,12.45
2022-11-01T17:42:14.500Z,14.80
2022-11-01T17:44:41.697Z,8.05
2022-11-01T17:47:14.171Z,8.77
2022-11-01T17:49:41.806Z,10.40
2022-11-01T17:52:11.525Z,9.05
2022-11-01T17:54:41.531Z,13.02
2022-11-01T17:57:11.570Z,16.48
2022-11-01T17:59:38.799Z,9.30
2022-11-01T18:02:06.118Z,9.00
2022-11-01T18:04:35.688Z,11.80
2022-11-01T18:07:06.099Z,6.57
2022-11-01T18:09:34.133Z,9.95
2022-11-01T18:12:19.613Z,11.13
2022-11-01T18:15:08.134Z,8.07
2022-11-01T18:17:59.939Z,9.60
2022-11-01T18:20:48.517Z,13.05
2022-11-01T18:23:23.130Z,7.13
2022-11-01T18:25:51.146Z,5.05
2022-11-01T18:28:24.715Z,5.82
2022-11-01T18:30:58.332Z,9.65
2022-11-01T18:33:37.672Z,7.30
2022-11-01T18:36:14.001Z,8.93
2022-11-01T18:39:14.411Z,6.57
2022-11-01T18:41:47.594Z,10.38
2022-11-01T18:44:19.656Z,4.78
2022-11-01T18:47:14.724Z,6.55
2022-11-01T18:49:45.868Z,10.32
2022-11-01T18:52:18.610Z,6.63
2022-11-01T18:54:55.343Z,9.50
2022-11-01T18:57:23.858Z,7.05
2022-11-01T18:59:53.194Z,11.45
2022-11-01T19:02:21.987Z,11.30
2022-11-01T19:04:52.069Z,11.05
2022-11-01T19:07:23.365Z,7.03
2022-11-01T19:12:28.286Z,7.40
2022-11-01T19:15:02.953Z,7.38
2022-11-01T19:17:37.439Z,2.83
2022-11-01T19:20:28.920Z,4.10
2022-11-01T19:23:01.195Z,8.25
2022-11-01T19:25:35.005Z,6.20
2022-11-01T19:28:12.571Z,4.68
2022-11-01T19:30:39.824Z,10.63
2022-11-01T19:33:22.049Z,8.27
2022-11-01T19:35:54.303Z,11.95
2022-11-01T19:38:24.817Z,8.90
2022-11-01T19:40:55.128Z,6.40
2022-11-01T19:43:28.363Z,9.40
2022-11-01T19:45:58.407Z,8.50
2022-11-01T19:48:30.733Z,2.85
2022-11-01T19:50:58.127Z,3.15
2022-11-01T19:53:33.943Z,3.58
2022-11-01T19:56:04.713Z,9.52
2022-11-01T19:58:41.980Z,2.90
2022-11-01T20:01:33.071Z,2.22
2022-11-01T20:04:00.419Z,5.63
2022-11-01T20:06:27.596Z,2.55
2022-11-01T20:09:06.098Z,2.33
2022-11-01T20:11:33.361Z,1.75
2022-11-01T20:14:01.173Z,8.15
2022-11-01T20:16:28.668Z,1.92
2022-11-01T20:18:55.943Z,5.05
2022-11-01T20:21:23.200Z,3.72
2022-11-01T20:23:50.403Z,3.17
2022-11-01T20:26:17.613Z,3.90
2022-11-01T20:28:45.064Z,2.28
2022-11-01T20:31:15.541Z,2.80
2022-11-01T20:33:42.818Z,2.35
2022-11-01T20:36:11.476Z,3.90
2022-11-01T20:38:39.528Z,3.53
2022-11-01T20:41:06.824Z,6.72
2022-11-01T20:43:34.741Z,1.65
2022-11-01T20:46:02.027Z,5.93
2022-11-01T20:48:32.750Z,1.40
2022-11-01T20:50:59.971Z,3.95
2022-11-01T20:53:29.832Z,3.53
2022-11-01T20:55:57.560Z,1.40
2022-11-01T20:58:24.842Z,1.30
2022-11-01T21:00:52.230Z,2.25
2022-11-01T21:03:21.365Z,6.40
2022-11-01T21:05:49.440Z,2.40
2022-11-01T21:08:24.433Z,2.30
2022-11-01T21:10:59.642Z,4.65
2022-11-01T21:13:35.481Z,3.70
2022-11-01T21:16:07.978Z,1.27
2022-11-01T21:18:38.870Z,3.35
2022-11-01T21:21:28.802Z,2.38
2022-11-01T21:23:56.223Z,1.02
2022-11-01T21:26:29.396Z,5.13
2022-11-01T21:29:19.369Z,4.18
2022-11-01T21:31:46.754Z,2.53
2022-11-01T21:34:13.992Z,3.88
2022-11-01T21:36:48.819Z,10.07
2022-11-01T21:39:20.759Z,3.10
2022-11-01T21:42:00.852Z,3.92
2022-11-01T21:44:35.607Z,1.50
2022-11-01T21:47:08.834Z,2.17
2022-11-01T21:49:36.446Z,2.45
2022-11-01T21:52:06.280Z,3.58
2022-11-01T21:54:35.639Z,2.25
2022-11-01T21:57:05.178Z,0.57
2022-11-01T21:59:33.052Z,2.60
2022-11-01T22:02:01.134Z,2.65
2022-11-01T22:04:30.258Z,1.33
2022-11-01T22:06:59.095Z,3.17
2022-11-01T22:09:27.131Z,0.55
2022-11-01T22:11:54.432Z,2.63
2022-11-01T22:14:22.759Z,3.38
2022-11-01T22:16:50.103Z,1.85
2022-11-01T22:19:24.535Z,1.60
2022-11-01T22:21:51.732Z,2.88
2022-11-01T22:24:19.169Z,1.15
2022-11-01T22:26:46.426Z,1.70
2022-11-01T22:29:13.595Z,2.90
2022-11-01T22:31:43.337Z,2.25
2022-11-01T22:34:10.538Z,3.85
2022-11-01T22:36:40.536Z,2.65
2022-11-01T22:39:19.070Z,3.00
2022-11-01T22:41:49.532Z,8.88
2022-11-01T22:44:18.982Z,2.45
2022-11-01T22:46:58.215Z,1.52
2022-11-01T22:49:27.161Z,3.75
2022-11-01T22:52:03.347Z,2.42
2022-11-01T22:54:33.583Z,4.47
2022-11-01T22:57:18.841Z,1.75
2022-11-01T22:59:56.104Z,10.00
2022-11-01T23:02:34.944Z,1.65
2022-11-01T23:05:08.440Z,2.90
2022-11-01T23:07:45.890Z,1.00
2022-11-01T23:10:26.658Z,2.10
2022-11-01T23:13:16.540Z,3.72
2022-11-01T23:15:44.691Z,2.08
2022-11-01T23:18:18.810Z,3.67
2022-11-01T23:20:54.152Z,1.52
2022-11-01T23:23:22.216Z,3.60
2022-11-01T23:25:50.455Z,1.73
2022-11-01T23:28:18.274Z,4.03
2022-11-01T23:30:57.413Z,1.95
2022-11-01T23:33:41.394Z,2.38
2022-11-01T23:36:26.050Z,1.58
2022-11-01T23:39:14.128Z,4.38
2022-11-01T23:41:47.473Z,3.22
2022-11-01T23:44:28.421Z,1.70
2022-11-01T23:47:20.811Z,2.35
2022-11-01T23:49:56.381Z,2.17
2022-11-01T23:52:35.462Z,2.88
2022-11-01T23:55:04.254Z,1.48
2022-11-01T23:57:31.482Z,1.52
2022-11-01T23:59:58.687Z,4.55
